Airport details for: LOWL (Austria)

Metar

LOWL 241150Z 12008KT 080V150 9999 FEW018 BKN024 09/04 Q1027 NOSIG

General details

ICAO: LOWL
IATA: LNZ
Name (city): Linz
Major:
Country: Austria
vACC: vACC Austria
Description:

http://www.vacc-austria.org/airports/LOWL

Scenery links:
FS9 scenery: Download
FSX/P3D scenery: Download
XP scenery: Download
Elevation: 980 ft.
Transition altitude: 4000 ft.
MSA: 9800 ft.
Latitude: 48.235278
Longitude: 14.188056
LOWL Charts
LOWL Notams
LOWL Online stations

Runways

Number Course Length Elevation Lat Lon ILS ILS freq ILS FAC GP
08 84° 9843ft / 3000 m 978ft 48.232639 14.170742 110.55 84° 3.0°
26 264° 9843ft / 3000 m 963ft 48.233844 14.205633 109.3 264° 3.0°